N482CS EGPC-EGCM
Flight info
| Callsign | N482CS |
|---|---|
| Flight time | 2h 38m |
| Altitude | 11000 |
| Route | WIK DCT ADN DCT NATEB |
| Aircraft | C172/L-SFG/C |
Departure
| Time | 2026-05-09 11:59 |
|---|---|
| Airport | Wick John O'Groats Airport (EGPC) |
Arrival
| Time | 2026-05-09 14:37 |
|---|---|
| Airport | Leeds East Airport (EGCM) |
| Time | Latitude | Longitude | Altitude | Speed | Heading |
|---|---|---|---|---|---|
| 2026-05-09 11:43 | 58.45371 | -3.08881 | 120 ft | 0 kts | 286° |
| 2026-05-09 11:54 | 58.45376 | -3.08886 | 118 ft | 1 kts | 12° |
| 2026-05-09 11:54 | 58.45379 | -3.08871 | 120 ft | 2 kts | 104° |
| 2026-05-09 11:54 | 58.45386 | -3.08818 | 118 ft | 7 kts | 54° |
| 2026-05-09 11:55 | 58.45432 | -3.08767 | 120 ft | 8 kts | 349° |
| 2026-05-09 11:56 | 58.45463 | -3.08786 | 121 ft | 0 kts | 329° |
| 2026-05-09 11:56 | 58.45486 | -3.08777 | 118 ft | 10 kts | 38° |
| 2026-05-09 11:57 | 58.45553 | -3.08651 | 120 ft | 14 kts | 54° |
| 2026-05-09 11:57 | 58.45586 | -3.08568 | 118 ft | 3 kts | 348° |
| 2026-05-09 11:57 | 58.45590 | -3.08572 | 119 ft | 0 kts | 331° |
| 2026-05-09 11:58 | 58.45606 | -3.08613 | 119 ft | 9 kts | 307° |
| 2026-05-09 11:58 | 58.45746 | -3.08964 | 123 ft | 56 kts | 307° |
| 2026-05-09 11:58 | 58.46015 | -3.09638 | 270 ft | 69 kts | 308° |
| 2026-05-09 11:58 | 58.46306 | -3.10424 | 523 ft | 73 kts | 295° |
| 2026-05-09 11:59 | 58.46162 | -3.11417 | 761 ft | 92 kts | 230° |
| 2026-05-09 11:59 | 58.45518 | -3.11825 | 1027 ft | 107 kts | 194° |
| 2026-05-09 11:59 | 58.44781 | -3.11671 | 1285 ft | 113 kts | 176° |
| 2026-05-09 11:59 | 58.44015 | -3.11203 | 1476 ft | 121 kts | 155° |
| 2026-05-09 12:00 | 58.43252 | -3.10483 | 1695 ft | 121 kts | 158° |
| 2026-05-09 12:00 | 58.42490 | -3.09854 | 1890 ft | 121 kts | 156° |
| 2026-05-09 12:00 | 58.41706 | -3.09108 | 2037 ft | 127 kts | 155° |
| 2026-05-09 12:00 | 58.40918 | -3.08359 | 2235 ft | 125 kts | 155° |
| 2026-05-09 12:01 | 58.40152 | -3.07631 | 2446 ft | 122 kts | 158° |
| 2026-05-09 12:01 | 58.39371 | -3.07051 | 2655 ft | 119 kts | 162° |
| 2026-05-09 12:01 | 58.38606 | -3.06483 | 2864 ft | 117 kts | 161° |
| 2026-05-09 12:01 | 58.37854 | -3.05915 | 3072 ft | 115 kts | 162° |
| 2026-05-09 12:02 | 58.37110 | -3.05349 | 3282 ft | 115 kts | 161° |
| 2026-05-09 12:02 | 58.36369 | -3.04784 | 3494 ft | 115 kts | 161° |
| 2026-05-09 12:02 | 58.35628 | -3.04219 | 3705 ft | 114 kts | 161° |
| 2026-05-09 12:02 | 58.34892 | -3.03657 | 3906 ft | 114 kts | 161° |
| 2026-05-09 12:03 | 58.34162 | -3.03100 | 4114 ft | 112 kts | 162° |
| 2026-05-09 12:03 | 58.33444 | -3.02550 | 4320 ft | 110 kts | 162° |
| 2026-05-09 12:03 | 58.32730 | -3.02005 | 4508 ft | 111 kts | 163° |
| 2026-05-09 12:03 | 58.32012 | -3.01457 | 4696 ft | 111 kts | 162° |
| 2026-05-09 12:04 | 58.31294 | -3.00911 | 4883 ft | 111 kts | 162° |
| 2026-05-09 12:04 | 58.30578 | -3.00365 | 5071 ft | 111 kts | 162° |
| 2026-05-09 12:04 | 58.29860 | -2.99819 | 5256 ft | 111 kts | 162° |
| 2026-05-09 12:04 | 58.29142 | -2.99270 | 5434 ft | 111 kts | 163° |
| 2026-05-09 12:05 | 58.28423 | -2.98722 | 5619 ft | 111 kts | 163° |
| 2026-05-09 12:05 | 58.27709 | -2.98180 | 5805 ft | 110 kts | 163° |
| 2026-05-09 12:05 | 58.27005 | -2.97644 | 5989 ft | 108 kts | 163° |
| 2026-05-09 12:05 | 58.26313 | -2.97118 | 6168 ft | 106 kts | 164° |
| 2026-05-09 12:06 | 58.25633 | -2.96600 | 6336 ft | 105 kts | 164° |
| 2026-05-09 12:06 | 58.24942 | -2.96077 | 6474 ft | 108 kts | 165° |
| 2026-05-09 12:06 | 58.24240 | -2.95544 | 6614 ft | 109 kts | 164° |
| 2026-05-09 12:06 | 58.23539 | -2.95011 | 6743 ft | 109 kts | 163° |
| 2026-05-09 12:07 | 58.22833 | -2.94478 | 6884 ft | 109 kts | 163° |
| 2026-05-09 12:07 | 58.22136 | -2.93950 | 7009 ft | 110 kts | 165° |
| 2026-05-09 12:07 | 58.21425 | -2.93411 | 7138 ft | 110 kts | 165° |
| 2026-05-09 12:07 | 58.20711 | -2.92871 | 7268 ft | 110 kts | 165° |
| 2026-05-09 12:08 | 58.20005 | -2.92333 | 7391 ft | 109 kts | 165° |
| 2026-05-09 12:08 | 58.19302 | -2.91800 | 7517 ft | 109 kts | 165° |
| 2026-05-09 12:08 | 58.18601 | -2.91272 | 7647 ft | 108 kts | 165° |
| 2026-05-09 12:08 | 58.17907 | -2.90746 | 7778 ft | 107 kts | 165° |
| 2026-05-09 12:09 | 58.17217 | -2.90224 | 7907 ft | 107 kts | 165° |
| 2026-05-09 12:09 | 58.16528 | -2.89703 | 8035 ft | 106 kts | 165° |
| 2026-05-09 12:09 | 58.15843 | -2.89184 | 8166 ft | 106 kts | 165° |
| 2026-05-09 12:10 | 58.13800 | -2.87645 | 8546 ft | 105 kts | 166° |
| 2026-05-09 12:10 | 58.13114 | -2.87128 | 8658 ft | 106 kts | 166° |
| 2026-05-09 12:10 | 58.12425 | -2.86609 | 8767 ft | 107 kts | 165° |
| 2026-05-09 12:11 | 58.11731 | -2.86086 | 8878 ft | 108 kts | 166° |
| 2026-05-09 12:11 | 58.11033 | -2.85559 | 8990 ft | 108 kts | 166° |
| 2026-05-09 12:11 | 58.10333 | -2.85032 | 9099 ft | 109 kts | 167° |
| 2026-05-09 12:11 | 58.09628 | -2.84502 | 9208 ft | 109 kts | 167° |
| 2026-05-09 12:12 | 58.08924 | -2.83972 | 9319 ft | 109 kts | 167° |
| 2026-05-09 12:12 | 58.08220 | -2.83443 | 9427 ft | 109 kts | 167° |
| 2026-05-09 12:12 | 58.07518 | -2.82916 | 9541 ft | 108 kts | 167° |
| 2026-05-09 12:12 | 58.06819 | -2.82389 | 9647 ft | 108 kts | 167° |
| 2026-05-09 12:13 | 58.06123 | -2.81867 | 9756 ft | 107 kts | 167° |
| 2026-05-09 12:13 | 58.05429 | -2.81345 | 9871 ft | 107 kts | 166° |
| 2026-05-09 12:13 | 58.04737 | -2.80825 | 9976 ft | 107 kts | 167° |
| 2026-05-09 12:13 | 58.04057 | -2.80316 | 10084 ft | 106 kts | 167° |
| 2026-05-09 12:14 | 58.03370 | -2.79802 | 10190 ft | 106 kts | 167° |
| 2026-05-09 12:14 | 58.02686 | -2.79289 | 10300 ft | 106 kts | 168° |
| 2026-05-09 12:14 | 58.02004 | -2.78778 | 10400 ft | 105 kts | 167° |
| 2026-05-09 12:14 | 58.01327 | -2.78269 | 10500 ft | 104 kts | 167° |
| 2026-05-09 12:15 | 58.00652 | -2.77763 | 10600 ft | 104 kts | 167° |
| 2026-05-09 12:15 | 57.99979 | -2.77260 | 10699 ft | 104 kts | 167° |
| 2026-05-09 12:15 | 57.99305 | -2.76758 | 10784 ft | 105 kts | 167° |
| 2026-05-09 12:15 | 57.98621 | -2.76249 | 10864 ft | 106 kts | 167° |
| 2026-05-09 12:16 | 57.97929 | -2.75732 | 10940 ft | 107 kts | 167° |
| 2026-05-09 12:16 | 57.97232 | -2.75211 | 11019 ft | 108 kts | 168° |
| 2026-05-09 12:16 | 57.96533 | -2.74688 | 11096 ft | 108 kts | 168° |
| 2026-05-09 12:16 | 57.95832 | -2.74164 | 11175 ft | 108 kts | 168° |
| 2026-05-09 12:17 | 57.95132 | -2.73642 | 11251 ft | 108 kts | 167° |
| 2026-05-09 12:17 | 57.94434 | -2.73121 | 11318 ft | 109 kts | 167° |
| 2026-05-09 12:17 | 57.93709 | -2.72586 | 11326 ft | 114 kts | 167° |
| 2026-05-09 12:17 | 57.92956 | -2.72028 | 11330 ft | 118 kts | 167° |
| 2026-05-09 12:18 | 57.92183 | -2.71451 | 11331 ft | 121 kts | 167° |
| 2026-05-09 12:18 | 57.91396 | -2.70864 | 11331 ft | 122 kts | 167° |
| 2026-05-09 12:18 | 57.90602 | -2.70273 | 11329 ft | 123 kts | 167° |
| 2026-05-09 12:18 | 57.89804 | -2.69678 | 11329 ft | 124 kts | 167° |
| 2026-05-09 12:19 | 57.89007 | -2.69087 | 11315 ft | 123 kts | 167° |
| 2026-05-09 12:19 | 57.88211 | -2.68495 | 11315 ft | 123 kts | 168° |
| 2026-05-09 12:19 | 57.87417 | -2.67905 | 11314 ft | 123 kts | 168° |
| 2026-05-09 12:19 | 57.86623 | -2.67314 | 11311 ft | 123 kts | 168° |
| 2026-05-09 12:20 | 57.85831 | -2.66726 | 11313 ft | 122 kts | 167° |
| 2026-05-09 12:20 | 57.85040 | -2.66140 | 11312 ft | 122 kts | 167° |
| 2026-05-09 12:20 | 57.84248 | -2.65554 | 11312 ft | 122 kts | 168° |
| 2026-05-09 12:20 | 57.83454 | -2.64966 | 11313 ft | 123 kts | 168° |
| 2026-05-09 12:21 | 57.82928 | -2.64575 | 11314 ft | 123 kts | 168° |
| 2026-05-09 12:21 | 57.82133 | -2.63987 | 11314 ft | 123 kts | 168° |
| 2026-05-09 12:21 | 57.81337 | -2.63399 | 11314 ft | 123 kts | 168° |
| 2026-05-09 12:21 | 57.80541 | -2.62810 | 11314 ft | 123 kts | 168° |
| 2026-05-09 12:22 | 57.79745 | -2.62222 | 11314 ft | 123 kts | 168° |
| 2026-05-09 12:22 | 57.78949 | -2.61633 | 11313 ft | 123 kts | 168° |
| 2026-05-09 12:22 | 57.78154 | -2.61044 | 11312 ft | 123 kts | 168° |
| 2026-05-09 12:22 | 57.77359 | -2.60457 | 11312 ft | 123 kts | 168° |
| 2026-05-09 12:23 | 57.76565 | -2.59872 | 11311 ft | 123 kts | 167° |
| 2026-05-09 12:23 | 57.75772 | -2.59287 | 11311 ft | 122 kts | 167° |
| 2026-05-09 12:23 | 57.74980 | -2.58704 | 11310 ft | 122 kts | 168° |
| 2026-05-09 12:23 | 57.74188 | -2.58120 | 11311 ft | 122 kts | 168° |
| 2026-05-09 12:24 | 57.73405 | -2.57542 | 11311 ft | 120 kts | 168° |
| 2026-05-09 12:24 | 57.72638 | -2.56977 | 11312 ft | 120 kts | 168° |
| 2026-05-09 12:24 | 57.71864 | -2.56407 | 11311 ft | 120 kts | 168° |
| 2026-05-09 12:24 | 57.71090 | -2.55839 | 11311 ft | 119 kts | 168° |
| 2026-05-09 12:25 | 57.70316 | -2.55271 | 11314 ft | 119 kts | 168° |
| 2026-05-09 12:25 | 57.69545 | -2.54704 | 11315 ft | 119 kts | 168° |
| 2026-05-09 12:25 | 57.68775 | -2.54139 | 11314 ft | 119 kts | 168° |
| 2026-05-09 12:25 | 57.68005 | -2.53573 | 11311 ft | 119 kts | 168° |
| 2026-05-09 12:26 | 57.67235 | -2.53007 | 11312 ft | 119 kts | 168° |
| 2026-05-09 12:26 | 57.66463 | -2.52442 | 11313 ft | 119 kts | 168° |
| 2026-05-09 12:26 | 57.65691 | -2.51876 | 11312 ft | 119 kts | 168° |
| 2026-05-09 12:26 | 57.64920 | -2.51311 | 11312 ft | 120 kts | 168° |
| 2026-05-09 12:27 | 57.64146 | -2.50745 | 11311 ft | 120 kts | 168° |
| 2026-05-09 12:27 | 57.63369 | -2.50176 | 11314 ft | 121 kts | 168° |
| 2026-05-09 12:27 | 57.62583 | -2.49601 | 11307 ft | 121 kts | 168° |
| 2026-05-09 12:27 | 57.61802 | -2.49029 | 11313 ft | 120 kts | 168° |
| 2026-05-09 12:28 | 57.61024 | -2.48460 | 11315 ft | 120 kts | 168° |
| 2026-05-09 12:28 | 57.60247 | -2.47891 | 11315 ft | 120 kts | 168° |
| 2026-05-09 12:28 | 57.59467 | -2.47322 | 11313 ft | 120 kts | 168° |
| 2026-05-09 12:28 | 57.58690 | -2.46755 | 11314 ft | 120 kts | 168° |
| 2026-05-09 12:29 | 57.57916 | -2.46189 | 11314 ft | 119 kts | 168° |
| 2026-05-09 12:29 | 57.57146 | -2.45628 | 11311 ft | 119 kts | 168° |
| 2026-05-09 12:29 | 57.56375 | -2.45066 | 11310 ft | 119 kts | 169° |
| 2026-05-09 12:29 | 57.55608 | -2.44507 | 11310 ft | 119 kts | 169° |
| 2026-05-09 12:30 | 57.54837 | -2.43945 | 11309 ft | 119 kts | 169° |
| 2026-05-09 12:30 | 57.54074 | -2.43390 | 11310 ft | 120 kts | 168° |
| 2026-05-09 12:30 | 57.52507 | -2.42251 | 11312 ft | 121 kts | 168° |
| 2026-05-09 12:31 | 57.51727 | -2.41683 | 11316 ft | 120 kts | 168° |
| 2026-05-09 12:31 | 57.50175 | -2.40556 | 11316 ft | 121 kts | 168° |
| 2026-05-09 12:31 | 57.49393 | -2.39988 | 11315 ft | 121 kts | 168° |
| 2026-05-09 12:32 | 57.48612 | -2.39421 | 11311 ft | 120 kts | 169° |
| 2026-05-09 12:32 | 57.47837 | -2.38857 | 11309 ft | 119 kts | 169° |
| 2026-05-09 12:32 | 57.47067 | -2.38300 | 11308 ft | 118 kts | 169° |
| 2026-05-09 12:32 | 57.46300 | -2.37744 | 11306 ft | 118 kts | 169° |
| 2026-05-09 12:33 | 57.45532 | -2.37188 | 11307 ft | 119 kts | 169° |
| 2026-05-09 12:33 | 57.44758 | -2.36629 | 11306 ft | 119 kts | 169° |
| 2026-05-09 12:33 | 57.43987 | -2.36069 | 11306 ft | 119 kts | 170° |
| 2026-05-09 12:33 | 57.43217 | -2.35512 | 11305 ft | 118 kts | 170° |
| 2026-05-09 12:34 | 57.42454 | -2.34959 | 11309 ft | 117 kts | 170° |
| 2026-05-09 12:34 | 57.41693 | -2.34410 | 11311 ft | 118 kts | 170° |
| 2026-05-09 12:34 | 57.40927 | -2.33858 | 11310 ft | 118 kts | 170° |
| 2026-05-09 12:34 | 57.40165 | -2.33306 | 11310 ft | 118 kts | 170° |
| 2026-05-09 12:35 | 57.39404 | -2.32756 | 11309 ft | 117 kts | 170° |
| 2026-05-09 12:35 | 57.38643 | -2.32207 | 11308 ft | 117 kts | 170° |
| 2026-05-09 12:35 | 57.37884 | -2.31660 | 11309 ft | 117 kts | 170° |
| 2026-05-09 12:35 | 57.37124 | -2.31114 | 11309 ft | 118 kts | 170° |
| 2026-05-09 12:36 | 57.36371 | -2.30571 | 11307 ft | 118 kts | 169° |
| 2026-05-09 12:36 | 57.35610 | -2.30022 | 11311 ft | 117 kts | 170° |
| 2026-05-09 12:36 | 57.34851 | -2.29476 | 11309 ft | 117 kts | 170° |
| 2026-05-09 12:36 | 57.34092 | -2.28931 | 11309 ft | 117 kts | 170° |
| 2026-05-09 12:37 | 57.33331 | -2.28382 | 11309 ft | 117 kts | 170° |
| 2026-05-09 12:37 | 57.32568 | -2.27833 | 11311 ft | 118 kts | 170° |
| 2026-05-09 12:37 | 57.31802 | -2.27283 | 11311 ft | 118 kts | 170° |
| 2026-05-09 12:37 | 57.31035 | -2.26745 | 11310 ft | 116 kts | 175° |
| 2026-05-09 12:38 | 57.30259 | -2.26538 | 11312 ft | 113 kts | 182° |
| 2026-05-09 12:38 | 57.29484 | -2.26326 | 11313 ft | 112 kts | 183° |
| 2026-05-09 12:38 | 57.28711 | -2.26118 | 11313 ft | 112 kts | 183° |
| 2026-05-09 12:38 | 57.27934 | -2.25911 | 11312 ft | 113 kts | 183° |
| 2026-05-09 12:39 | 57.27157 | -2.25705 | 11313 ft | 113 kts | 183° |
| 2026-05-09 12:39 | 57.26379 | -2.25498 | 11313 ft | 113 kts | 182° |
| 2026-05-09 12:39 | 57.25598 | -2.25293 | 11313 ft | 113 kts | 183° |
| 2026-05-09 12:39 | 57.24818 | -2.25086 | 11314 ft | 113 kts | 183° |
| 2026-05-09 12:40 | 57.24036 | -2.24879 | 11317 ft | 114 kts | 183° |
| 2026-05-09 12:40 | 57.23253 | -2.24672 | 11317 ft | 114 kts | 183° |
| 2026-05-09 12:40 | 57.22470 | -2.24464 | 11318 ft | 114 kts | 183° |
| 2026-05-09 12:40 | 57.21686 | -2.24256 | 11318 ft | 114 kts | 183° |
| 2026-05-09 12:41 | 57.20904 | -2.24047 | 11315 ft | 113 kts | 183° |
| 2026-05-09 12:41 | 57.20129 | -2.23843 | 11314 ft | 112 kts | 183° |
| 2026-05-09 12:41 | 57.19359 | -2.23640 | 11312 ft | 112 kts | 183° |
| 2026-05-09 12:41 | 57.18585 | -2.23437 | 11313 ft | 113 kts | 183° |
| 2026-05-09 12:42 | 57.17809 | -2.23232 | 11312 ft | 113 kts | 183° |
| 2026-05-09 12:42 | 57.17032 | -2.23027 | 11312 ft | 113 kts | 183° |
| 2026-05-09 12:42 | 57.16264 | -2.22824 | 11312 ft | 113 kts | 183° |
| 2026-05-09 12:42 | 57.15486 | -2.22618 | 11311 ft | 113 kts | 183° |
| 2026-05-09 12:43 | 57.14712 | -2.22413 | 11308 ft | 112 kts | 183° |
| 2026-05-09 12:43 | 57.13939 | -2.22210 | 11310 ft | 112 kts | 183° |
| 2026-05-09 12:43 | 57.13167 | -2.22007 | 11310 ft | 112 kts | 183° |
| 2026-05-09 12:43 | 57.12394 | -2.21802 | 11310 ft | 112 kts | 183° |
| 2026-05-09 12:44 | 57.11617 | -2.21600 | 11312 ft | 113 kts | 183° |
| 2026-05-09 12:44 | 57.10835 | -2.21395 | 11313 ft | 114 kts | 183° |
| 2026-05-09 12:44 | 57.10050 | -2.21188 | 11312 ft | 114 kts | 183° |
| 2026-05-09 12:44 | 57.09268 | -2.20983 | 11311 ft | 113 kts | 183° |
| 2026-05-09 12:45 | 57.08494 | -2.20779 | 11311 ft | 111 kts | 183° |
| 2026-05-09 12:45 | 57.07729 | -2.20577 | 11310 ft | 111 kts | 183° |
| 2026-05-09 12:45 | 57.06967 | -2.20377 | 11307 ft | 111 kts | 183° |
| 2026-05-09 12:45 | 57.06209 | -2.20178 | 11306 ft | 110 kts | 183° |
| 2026-05-09 12:46 | 57.05452 | -2.19980 | 11306 ft | 110 kts | 183° |
| 2026-05-09 12:46 | 57.04693 | -2.19782 | 11306 ft | 110 kts | 183° |
| 2026-05-09 12:46 | 57.03935 | -2.19583 | 11305 ft | 110 kts | 183° |
| 2026-05-09 12:46 | 57.03178 | -2.19384 | 11304 ft | 110 kts | 183° |
| 2026-05-09 12:47 | 57.02422 | -2.19186 | 11304 ft | 110 kts | 183° |
| 2026-05-09 12:47 | 57.01665 | -2.18988 | 11304 ft | 110 kts | 183° |
| 2026-05-09 12:47 | 57.00910 | -2.18790 | 11302 ft | 110 kts | 183° |
| 2026-05-09 12:47 | 57.00156 | -2.18594 | 11304 ft | 109 kts | 183° |
| 2026-05-09 12:48 | 56.99406 | -2.18397 | 11303 ft | 109 kts | 183° |
| 2026-05-09 12:48 | 56.98658 | -2.18202 | 11302 ft | 109 kts | 183° |
| 2026-05-09 12:48 | 56.97908 | -2.18006 | 11304 ft | 109 kts | 183° |
| 2026-05-09 12:48 | 56.97158 | -2.17810 | 11305 ft | 109 kts | 183° |
| 2026-05-09 12:49 | 56.96404 | -2.17613 | 11305 ft | 109 kts | 183° |
| 2026-05-09 12:49 | 56.95651 | -2.17417 | 11304 ft | 109 kts | 183° |
| 2026-05-09 12:49 | 56.94899 | -2.17221 | 11297 ft | 109 kts | 183° |
| 2026-05-09 12:49 | 56.94149 | -2.17025 | 11296 ft | 109 kts | 183° |
| 2026-05-09 12:50 | 56.93403 | -2.16831 | 11298 ft | 108 kts | 183° |
| 2026-05-09 12:50 | 56.92657 | -2.16637 | 11294 ft | 108 kts | 183° |
| 2026-05-09 12:50 | 56.91912 | -2.16443 | 11294 ft | 108 kts | 183° |
| 2026-05-09 12:50 | 56.91166 | -2.16248 | 11293 ft | 108 kts | 183° |
| 2026-05-09 12:51 | 56.90419 | -2.16054 | 11297 ft | 108 kts | 183° |
| 2026-05-09 12:51 | 56.89671 | -2.15860 | 11297 ft | 109 kts | 183° |
| 2026-05-09 12:51 | 56.88921 | -2.15665 | 11297 ft | 109 kts | 183° |
| 2026-05-09 12:51 | 56.88182 | -2.15473 | 11297 ft | 109 kts | 183° |
| 2026-05-09 12:52 | 56.87423 | -2.15277 | 11294 ft | 109 kts | 183° |
| 2026-05-09 12:52 | 56.86674 | -2.15082 | 11294 ft | 109 kts | 183° |
| 2026-05-09 12:52 | 56.85925 | -2.14887 | 11293 ft | 108 kts | 183° |
| 2026-05-09 12:52 | 56.85189 | -2.14696 | 11293 ft | 108 kts | 183° |
| 2026-05-09 12:53 | 56.84441 | -2.14502 | 11293 ft | 109 kts | 183° |
| 2026-05-09 12:53 | 56.83692 | -2.14308 | 11293 ft | 109 kts | 183° |
| 2026-05-09 12:53 | 56.82943 | -2.14114 | 11292 ft | 109 kts | 183° |
| 2026-05-09 12:53 | 56.82195 | -2.13921 | 11290 ft | 108 kts | 183° |
| 2026-05-09 12:54 | 56.81461 | -2.13730 | 11299 ft | 107 kts | 184° |
| 2026-05-09 12:54 | 56.80725 | -2.13540 | 11298 ft | 107 kts | 184° |
| 2026-05-09 12:54 | 56.79992 | -2.13350 | 11297 ft | 106 kts | 184° |
| 2026-05-09 12:54 | 56.79259 | -2.13160 | 11297 ft | 106 kts | 184° |
| 2026-05-09 12:55 | 56.78527 | -2.12971 | 11296 ft | 106 kts | 184° |
| 2026-05-09 12:55 | 56.77796 | -2.12782 | 11296 ft | 106 kts | 184° |
| 2026-05-09 12:55 | 56.77066 | -2.12594 | 11297 ft | 106 kts | 183° |
| 2026-05-09 12:55 | 56.76335 | -2.12406 | 11295 ft | 106 kts | 183° |
| 2026-05-09 12:56 | 56.75606 | -2.12218 | 11292 ft | 106 kts | 184° |
| 2026-05-09 12:56 | 56.74875 | -2.12030 | 11292 ft | 106 kts | 184° |
| 2026-05-09 12:56 | 56.74144 | -2.11841 | 11293 ft | 106 kts | 184° |
| 2026-05-09 12:56 | 56.73410 | -2.11652 | 11294 ft | 107 kts | 184° |
| 2026-05-09 12:57 | 56.72676 | -2.11462 | 11296 ft | 107 kts | 184° |
| 2026-05-09 12:57 | 56.71941 | -2.11272 | 11296 ft | 107 kts | 184° |
| 2026-05-09 12:57 | 56.71206 | -2.11083 | 11297 ft | 107 kts | 184° |
| 2026-05-09 12:57 | 56.70471 | -2.10895 | 11295 ft | 107 kts | 183° |
| 2026-05-09 12:58 | 56.69738 | -2.10706 | 11295 ft | 106 kts | 184° |
| 2026-05-09 12:58 | 56.69006 | -2.10518 | 11294 ft | 106 kts | 184° |
| 2026-05-09 12:58 | 56.68274 | -2.10330 | 11295 ft | 106 kts | 184° |
| 2026-05-09 12:58 | 56.67543 | -2.10142 | 11295 ft | 106 kts | 184° |
| 2026-05-09 12:59 | 56.66811 | -2.09953 | 11295 ft | 106 kts | 184° |
| 2026-05-09 12:59 | 56.66087 | -2.09767 | 11295 ft | 106 kts | 184° |
| 2026-05-09 12:59 | 56.65353 | -2.09579 | 11297 ft | 107 kts | 184° |
| 2026-05-09 12:59 | 56.64620 | -2.09392 | 11294 ft | 107 kts | 183° |
| 2026-05-09 13:00 | 56.63887 | -2.09204 | 11301 ft | 106 kts | 184° |
| 2026-05-09 13:00 | 56.63148 | -2.09015 | 11302 ft | 106 kts | 184° |
| 2026-05-09 13:00 | 56.62426 | -2.08830 | 11300 ft | 106 kts | 184° |
| 2026-05-09 13:00 | 56.61696 | -2.08642 | 11305 ft | 106 kts | 184° |
| 2026-05-09 13:01 | 56.60967 | -2.08455 | 11303 ft | 106 kts | 184° |
| 2026-05-09 13:01 | 56.60236 | -2.08268 | 11303 ft | 106 kts | 184° |
| 2026-05-09 13:01 | 56.59505 | -2.08081 | 11304 ft | 106 kts | 184° |
| 2026-05-09 13:01 | 56.58774 | -2.07894 | 11303 ft | 106 kts | 184° |
| 2026-05-09 13:02 | 56.58044 | -2.07708 | 11303 ft | 106 kts | 184° |
| 2026-05-09 13:02 | 56.57314 | -2.07522 | 11302 ft | 106 kts | 183° |
| 2026-05-09 13:02 | 56.56583 | -2.07335 | 11301 ft | 106 kts | 184° |
| 2026-05-09 13:02 | 56.55853 | -2.07149 | 11303 ft | 106 kts | 184° |
| 2026-05-09 13:03 | 56.55131 | -2.06962 | 11300 ft | 104 kts | 184° |
| 2026-05-09 13:03 | 56.54409 | -2.06779 | 11300 ft | 105 kts | 184° |
| 2026-05-09 13:03 | 56.53688 | -2.06595 | 11300 ft | 105 kts | 184° |
| 2026-05-09 13:03 | 56.52966 | -2.06411 | 11300 ft | 105 kts | 183° |
| 2026-05-09 13:04 | 56.52243 | -2.06228 | 11300 ft | 105 kts | 184° |
| 2026-05-09 13:04 | 56.51520 | -2.06044 | 11301 ft | 105 kts | 184° |
| 2026-05-09 13:04 | 56.50794 | -2.05859 | 11301 ft | 105 kts | 184° |
| 2026-05-09 13:04 | 56.50068 | -2.05674 | 11298 ft | 105 kts | 184° |
| 2026-05-09 13:05 | 56.49343 | -2.05489 | 11299 ft | 105 kts | 184° |
| 2026-05-09 13:05 | 56.48615 | -2.05304 | 11299 ft | 106 kts | 184° |
| 2026-05-09 13:05 | 56.47887 | -2.05119 | 11299 ft | 106 kts | 184° |
| 2026-05-09 13:05 | 56.47159 | -2.04934 | 11298 ft | 105 kts | 183° |
| 2026-05-09 13:06 | 56.46435 | -2.04750 | 11297 ft | 105 kts | 183° |
| 2026-05-09 13:06 | 56.45709 | -2.04567 | 11297 ft | 105 kts | 184° |
| 2026-05-09 13:06 | 56.44984 | -2.04383 | 11296 ft | 105 kts | 184° |
| 2026-05-09 13:06 | 56.44259 | -2.04199 | 11297 ft | 105 kts | 184° |
| 2026-05-09 13:07 | 56.43534 | -2.04014 | 11298 ft | 105 kts | 184° |
| 2026-05-09 13:07 | 56.42811 | -2.03831 | 11299 ft | 105 kts | 184° |
| 2026-05-09 13:07 | 56.42089 | -2.03647 | 11297 ft | 105 kts | 184° |
| 2026-05-09 13:07 | 56.41367 | -2.03464 | 11297 ft | 105 kts | 184° |
| 2026-05-09 13:08 | 56.40644 | -2.03281 | 11295 ft | 105 kts | 183° |
| 2026-05-09 13:08 | 56.39922 | -2.03099 | 11296 ft | 105 kts | 183° |
| 2026-05-09 13:08 | 56.39199 | -2.02917 | 11296 ft | 105 kts | 184° |
| 2026-05-09 13:08 | 56.38484 | -2.02737 | 11297 ft | 105 kts | 184° |
| 2026-05-09 13:09 | 56.37760 | -2.02554 | 11296 ft | 105 kts | 184° |
| 2026-05-09 13:09 | 56.37032 | -2.02370 | 11297 ft | 105 kts | 184° |
| 2026-05-09 13:09 | 56.36306 | -2.02185 | 11294 ft | 105 kts | 184° |
| 2026-05-09 13:09 | 56.35580 | -2.02001 | 11296 ft | 105 kts | 184° |
| 2026-05-09 13:10 | 56.34854 | -2.01817 | 11299 ft | 105 kts | 184° |
| 2026-05-09 13:10 | 56.34127 | -2.01634 | 11299 ft | 106 kts | 184° |
| 2026-05-09 13:10 | 56.33400 | -2.01451 | 11300 ft | 106 kts | 184° |
| 2026-05-09 13:10 | 56.32908 | -2.01327 | 11299 ft | 105 kts | 184° |
| 2026-05-09 13:11 | 56.32182 | -2.01143 | 11296 ft | 105 kts | 184° |
| 2026-05-09 13:11 | 56.31455 | -2.00960 | 11296 ft | 106 kts | 184° |
| 2026-05-09 13:11 | 56.30728 | -2.00777 | 11295 ft | 106 kts | 184° |
| 2026-05-09 13:11 | 56.30010 | -2.00596 | 11295 ft | 105 kts | 184° |
| 2026-05-09 13:12 | 56.29283 | -2.00414 | 11298 ft | 105 kts | 184° |
| 2026-05-09 13:12 | 56.28558 | -2.00231 | 11296 ft | 105 kts | 183° |
| 2026-05-09 13:12 | 56.27836 | -2.00049 | 11298 ft | 104 kts | 183° |
| 2026-05-09 13:12 | 56.27115 | -1.99867 | 11298 ft | 105 kts | 183° |
| 2026-05-09 13:13 | 56.26394 | -1.99686 | 11298 ft | 104 kts | 182° |
| 2026-05-09 13:13 | 56.25675 | -1.99505 | 11297 ft | 104 kts | 182° |
| 2026-05-09 13:13 | 56.24958 | -1.99325 | 11296 ft | 104 kts | 182° |
| 2026-05-09 13:13 | 56.24243 | -1.99146 | 11296 ft | 104 kts | 182° |
| 2026-05-09 13:14 | 56.23529 | -1.98967 | 11296 ft | 104 kts | 182° |
| 2026-05-09 13:14 | 56.22815 | -1.98788 | 11295 ft | 104 kts | 182° |
| 2026-05-09 13:16 | 56.17783 | -1.97528 | 11296 ft | 105 kts | 182° |
| 2026-05-09 13:16 | 56.17061 | -1.97348 | 11296 ft | 105 kts | 182° |
| 2026-05-09 13:16 | 56.16339 | -1.97168 | 11296 ft | 105 kts | 182° |
| 2026-05-09 13:16 | 56.15617 | -1.96988 | 11297 ft | 105 kts | 182° |
| 2026-05-09 13:17 | 56.14894 | -1.96806 | 11297 ft | 105 kts | 183° |
| 2026-05-09 13:17 | 56.14171 | -1.96625 | 11295 ft | 105 kts | 183° |
| 2026-05-09 13:17 | 56.13447 | -1.96444 | 11295 ft | 105 kts | 183° |
| 2026-05-09 13:17 | 56.12723 | -1.96263 | 11296 ft | 105 kts | 183° |
| 2026-05-09 13:18 | 56.12002 | -1.96083 | 11295 ft | 105 kts | 183° |
| 2026-05-09 13:18 | 56.11283 | -1.95904 | 11296 ft | 104 kts | 182° |
| 2026-05-09 13:18 | 56.10566 | -1.95726 | 11297 ft | 104 kts | 183° |
| 2026-05-09 13:18 | 56.09851 | -1.95548 | 11297 ft | 104 kts | 183° |
| 2026-05-09 13:19 | 56.09138 | -1.95370 | 11297 ft | 103 kts | 183° |
| 2026-05-09 13:19 | 56.08433 | -1.95195 | 11298 ft | 103 kts | 183° |
| 2026-05-09 13:19 | 56.07710 | -1.95015 | 11295 ft | 104 kts | 183° |
| 2026-05-09 13:19 | 56.07006 | -1.94839 | 11295 ft | 104 kts | 183° |
| 2026-05-09 13:20 | 56.06291 | -1.94662 | 11296 ft | 104 kts | 183° |
| 2026-05-09 13:20 | 56.05578 | -1.94485 | 11293 ft | 103 kts | 182° |
| 2026-05-09 13:20 | 56.04869 | -1.94308 | 11295 ft | 102 kts | 183° |
| 2026-05-09 13:20 | 56.04165 | -1.94134 | 11294 ft | 102 kts | 183° |
| 2026-05-09 13:21 | 56.03461 | -1.93959 | 11292 ft | 102 kts | 183° |
| 2026-05-09 13:21 | 56.02760 | -1.93784 | 11294 ft | 101 kts | 183° |
| 2026-05-09 13:21 | 56.02059 | -1.93609 | 11294 ft | 102 kts | 183° |
| 2026-05-09 13:21 | 56.01357 | -1.93435 | 11295 ft | 102 kts | 183° |
| 2026-05-09 13:22 | 56.00653 | -1.93261 | 11295 ft | 102 kts | 183° |
| 2026-05-09 13:22 | 55.99947 | -1.93086 | 11295 ft | 102 kts | 183° |
| 2026-05-09 13:22 | 55.99240 | -1.92911 | 11296 ft | 103 kts | 183° |
| 2026-05-09 13:23 | 55.96412 | -1.92212 | 11301 ft | 103 kts | 183° |
| 2026-05-09 13:23 | 55.95702 | -1.92036 | 11302 ft | 103 kts | 183° |
| 2026-05-09 13:24 | 55.94989 | -1.91860 | 11299 ft | 103 kts | 183° |
| 2026-05-09 13:24 | 55.94274 | -1.91683 | 11298 ft | 104 kts | 183° |
| 2026-05-09 13:24 | 55.93558 | -1.91505 | 11298 ft | 104 kts | 183° |
| 2026-05-09 13:24 | 55.92841 | -1.91328 | 11298 ft | 104 kts | 182° |
| 2026-05-09 13:25 | 55.92127 | -1.91152 | 11294 ft | 103 kts | 183° |
| 2026-05-09 13:25 | 55.91418 | -1.90977 | 11291 ft | 103 kts | 183° |
| 2026-05-09 13:25 | 55.90005 | -1.90629 | 11291 ft | 102 kts | 183° |
| 2026-05-09 13:26 | 55.89297 | -1.90455 | 11294 ft | 103 kts | 183° |
| 2026-05-09 13:26 | 55.88596 | -1.90282 | 11295 ft | 103 kts | 183° |
| 2026-05-09 13:26 | 55.87885 | -1.90107 | 11296 ft | 103 kts | 183° |
| 2026-05-09 13:26 | 55.87175 | -1.89932 | 11295 ft | 103 kts | 182° |
| 2026-05-09 13:27 | 55.86462 | -1.89757 | 11293 ft | 104 kts | 183° |
| 2026-05-09 13:27 | 55.85750 | -1.89582 | 11293 ft | 103 kts | 183° |
| 2026-05-09 13:27 | 55.85038 | -1.89407 | 11292 ft | 103 kts | 183° |
| 2026-05-09 13:27 | 55.84324 | -1.89232 | 11292 ft | 104 kts | 183° |
| 2026-05-09 13:28 | 55.83609 | -1.89055 | 11293 ft | 104 kts | 183° |
| 2026-05-09 13:28 | 55.82894 | -1.88879 | 11292 ft | 103 kts | 183° |
| 2026-05-09 13:28 | 55.82183 | -1.88704 | 11292 ft | 103 kts | 183° |
| 2026-05-09 13:28 | 55.81473 | -1.88529 | 11291 ft | 103 kts | 183° |
| 2026-05-09 13:29 | 55.80766 | -1.88355 | 11292 ft | 102 kts | 183° |
| 2026-05-09 13:29 | 55.80063 | -1.88183 | 11290 ft | 102 kts | 183° |
| 2026-05-09 13:29 | 55.79366 | -1.88011 | 11290 ft | 100 kts | 183° |
| 2026-05-09 13:29 | 55.78680 | -1.87843 | 11292 ft | 99 kts | 183° |
| 2026-05-09 13:30 | 55.77996 | -1.87676 | 11293 ft | 99 kts | 183° |
| 2026-05-09 13:30 | 55.77314 | -1.87510 | 11291 ft | 99 kts | 183° |
| 2026-05-09 13:30 | 55.76633 | -1.87344 | 11293 ft | 98 kts | 182° |
| 2026-05-09 13:30 | 55.75956 | -1.87178 | 11291 ft | 99 kts | 181° |
| 2026-05-09 13:31 | 55.75273 | -1.87011 | 11286 ft | 99 kts | 181° |
| 2026-05-09 13:31 | 55.74588 | -1.86843 | 11285 ft | 99 kts | 181° |
| 2026-05-09 13:31 | 55.73905 | -1.86675 | 11285 ft | 99 kts | 182° |
| 2026-05-09 13:31 | 55.73222 | -1.86507 | 11285 ft | 99 kts | 182° |
| 2026-05-09 13:32 | 55.72541 | -1.86341 | 11292 ft | 99 kts | 182° |
| 2026-05-09 13:32 | 55.71187 | -1.86011 | 11291 ft | 98 kts | 182° |
| 2026-05-09 13:32 | 55.70507 | -1.85845 | 11288 ft | 99 kts | 182° |
| 2026-05-09 13:33 | 55.69822 | -1.85678 | 11290 ft | 100 kts | 181° |
| 2026-05-09 13:33 | 55.69137 | -1.85510 | 11294 ft | 100 kts | 181° |
| 2026-05-09 13:33 | 55.68445 | -1.85343 | 11297 ft | 101 kts | 181° |
| 2026-05-09 13:33 | 55.67745 | -1.85173 | 11301 ft | 102 kts | 181° |
| 2026-05-09 13:34 | 55.67035 | -1.85000 | 11305 ft | 104 kts | 180° |
| 2026-05-09 13:34 | 55.66299 | -1.84825 | 11299 ft | 109 kts | 180° |
| 2026-05-09 13:34 | 55.65536 | -1.84639 | 11305 ft | 113 kts | 181° |
| 2026-05-09 13:34 | 55.64751 | -1.84448 | 11301 ft | 114 kts | 181° |
| 2026-05-09 13:35 | 55.63964 | -1.84255 | 11297 ft | 115 kts | 180° |
| 2026-05-09 13:35 | 55.63174 | -1.84061 | 11289 ft | 113 kts | 180° |
| 2026-05-09 13:35 | 55.62413 | -1.83873 | 11287 ft | 108 kts | 180° |
| 2026-05-09 13:35 | 55.61690 | -1.83696 | 11289 ft | 103 kts | 181° |
| 2026-05-09 13:36 | 55.60986 | -1.83526 | 11291 ft | 102 kts | 182° |
| 2026-05-09 13:36 | 55.60288 | -1.83356 | 11292 ft | 103 kts | 181° |
| 2026-05-09 13:36 | 55.59566 | -1.83184 | 11297 ft | 106 kts | 181° |
| 2026-05-09 13:36 | 55.58828 | -1.83006 | 11298 ft | 107 kts | 181° |
| 2026-05-09 13:37 | 55.58087 | -1.82826 | 11297 ft | 107 kts | 181° |
| 2026-05-09 13:37 | 55.57349 | -1.82646 | 11293 ft | 106 kts | 182° |
| 2026-05-09 13:37 | 55.56623 | -1.82467 | 11285 ft | 104 kts | 181° |
| 2026-05-09 13:37 | 55.55914 | -1.82295 | 11281 ft | 101 kts | 181° |
| 2026-05-09 13:38 | 55.55226 | -1.82129 | 11280 ft | 98 kts | 182° |
| 2026-05-09 13:38 | 55.54563 | -1.81966 | 11265 ft | 95 kts | 182° |
| 2026-05-09 13:38 | 55.53911 | -1.81808 | 11261 ft | 94 kts | 182° |
| 2026-05-09 13:38 | 55.53270 | -1.81653 | 11262 ft | 93 kts | 182° |
| 2026-05-09 13:39 | 55.52631 | -1.81499 | 11265 ft | 93 kts | 182° |
| 2026-05-09 13:39 | 55.51991 | -1.81345 | 11263 ft | 93 kts | 182° |
| 2026-05-09 13:39 | 55.51355 | -1.81192 | 11261 ft | 92 kts | 182° |
| 2026-05-09 13:39 | 55.50729 | -1.81040 | 11264 ft | 90 kts | 184° |
| 2026-05-09 13:40 | 55.50110 | -1.80889 | 11262 ft | 89 kts | 182° |
| 2026-05-09 13:40 | 55.49496 | -1.80742 | 11263 ft | 89 kts | 183° |
| 2026-05-09 13:40 | 55.48885 | -1.80595 | 11259 ft | 88 kts | 184° |
| 2026-05-09 13:40 | 55.48278 | -1.80449 | 11258 ft | 88 kts | 184° |
| 2026-05-09 13:41 | 55.47675 | -1.80303 | 11263 ft | 88 kts | 184° |
| 2026-05-09 13:41 | 55.47064 | -1.80157 | 11266 ft | 89 kts | 185° |
| 2026-05-09 13:41 | 55.46449 | -1.80009 | 11269 ft | 89 kts | 184° |
| 2026-05-09 13:41 | 55.45830 | -1.79857 | 11266 ft | 90 kts | 182° |
| 2026-05-09 13:42 | 55.45205 | -1.79706 | 11266 ft | 91 kts | 181° |
| 2026-05-09 13:42 | 55.44581 | -1.79557 | 11262 ft | 90 kts | 183° |
| 2026-05-09 13:42 | 55.43956 | -1.79407 | 11260 ft | 91 kts | 181° |
| 2026-05-09 13:42 | 55.43338 | -1.79259 | 11265 ft | 90 kts | 184° |
| 2026-05-09 13:43 | 55.42714 | -1.79108 | 11269 ft | 91 kts | 182° |
| 2026-05-09 13:43 | 55.42087 | -1.78958 | 11276 ft | 91 kts | 184° |
| 2026-05-09 13:43 | 55.41446 | -1.78805 | 11275 ft | 95 kts | 182° |
| 2026-05-09 13:43 | 55.40780 | -1.78644 | 11271 ft | 97 kts | 182° |
| 2026-05-09 13:44 | 55.40106 | -1.78484 | 11275 ft | 97 kts | 183° |
| 2026-05-09 13:44 | 55.39441 | -1.78322 | 11270 ft | 96 kts | 183° |
| 2026-05-09 13:44 | 55.38780 | -1.78162 | 11266 ft | 96 kts | 182° |
| 2026-05-09 13:44 | 55.38121 | -1.78004 | 11263 ft | 96 kts | 181° |
| 2026-05-09 13:45 | 55.37461 | -1.77846 | 11263 ft | 96 kts | 181° |
| 2026-05-09 13:45 | 55.36799 | -1.77688 | 11264 ft | 96 kts | 181° |
| 2026-05-09 13:45 | 55.36133 | -1.77529 | 11265 ft | 97 kts | 181° |
| 2026-05-09 13:45 | 55.35464 | -1.77368 | 11267 ft | 97 kts | 181° |
| 2026-05-09 13:46 | 55.34794 | -1.77207 | 11265 ft | 97 kts | 181° |
| 2026-05-09 13:46 | 55.34125 | -1.77046 | 11268 ft | 97 kts | 181° |
| 2026-05-09 13:46 | 55.33461 | -1.76887 | 11266 ft | 96 kts | 182° |
| 2026-05-09 13:46 | 55.32800 | -1.76730 | 11270 ft | 96 kts | 183° |
| 2026-05-09 13:47 | 55.32138 | -1.76571 | 11266 ft | 96 kts | 182° |
| 2026-05-09 13:47 | 55.31471 | -1.76413 | 11267 ft | 97 kts | 183° |
| 2026-05-09 13:47 | 55.30807 | -1.76254 | 11268 ft | 96 kts | 184° |
| 2026-05-09 13:47 | 55.30146 | -1.76093 | 11267 ft | 96 kts | 182° |
| 2026-05-09 13:48 | 55.29485 | -1.75936 | 11268 ft | 95 kts | 184° |
| 2026-05-09 13:48 | 55.28827 | -1.75777 | 11265 ft | 96 kts | 181° |
| 2026-05-09 13:48 | 55.28163 | -1.75618 | 11264 ft | 96 kts | 181° |
| 2026-05-09 13:48 | 55.27498 | -1.75462 | 11269 ft | 96 kts | 183° |
| 2026-05-09 13:49 | 55.26833 | -1.75303 | 11266 ft | 97 kts | 181° |
| 2026-05-09 13:49 | 55.26158 | -1.75144 | 11270 ft | 98 kts | 183° |
| 2026-05-09 13:49 | 55.25484 | -1.74983 | 11273 ft | 98 kts | 184° |
| 2026-05-09 13:49 | 55.24808 | -1.74820 | 11260 ft | 98 kts | 185° |
| 2026-05-09 13:50 | 55.24126 | -1.74658 | 11259 ft | 99 kts | 185° |
| 2026-05-09 13:50 | 55.23439 | -1.74494 | 11260 ft | 100 kts | 184° |
| 2026-05-09 13:50 | 55.22748 | -1.74329 | 11266 ft | 101 kts | 184° |
| 2026-05-09 13:50 | 55.22054 | -1.74165 | 11263 ft | 101 kts | 184° |
| 2026-05-09 13:51 | 55.21358 | -1.73999 | 11265 ft | 101 kts | 184° |
| 2026-05-09 13:51 | 55.20655 | -1.73832 | 11266 ft | 102 kts | 184° |
| 2026-05-09 13:51 | 55.19947 | -1.73663 | 11266 ft | 103 kts | 182° |
| 2026-05-09 13:51 | 55.19229 | -1.73492 | 11268 ft | 104 kts | 183° |
| 2026-05-09 13:52 | 55.18507 | -1.73321 | 11269 ft | 105 kts | 184° |
| 2026-05-09 13:52 | 55.17780 | -1.73148 | 11271 ft | 106 kts | 184° |
| 2026-05-09 13:52 | 55.17049 | -1.72975 | 11274 ft | 106 kts | 184° |
| 2026-05-09 13:52 | 55.16311 | -1.72800 | 11273 ft | 108 kts | 183° |
| 2026-05-09 13:53 | 55.15575 | -1.72625 | 11273 ft | 109 kts | 181° |
| 2026-05-09 13:53 | 55.14820 | -1.72446 | 11274 ft | 110 kts | 181° |
| 2026-05-09 13:53 | 55.14058 | -1.72266 | 11273 ft | 111 kts | 182° |
| 2026-05-09 13:53 | 55.13288 | -1.72085 | 11273 ft | 112 kts | 182° |
| 2026-05-09 13:54 | 55.12510 | -1.71899 | 11270 ft | 114 kts | 181° |
| 2026-05-09 13:54 | 55.11717 | -1.71711 | 11273 ft | 116 kts | 181° |
| 2026-05-09 13:54 | 55.10917 | -1.71526 | 11273 ft | 116 kts | 182° |
| 2026-05-09 13:54 | 55.10114 | -1.71334 | 11271 ft | 117 kts | 183° |
| 2026-05-09 13:55 | 55.09307 | -1.71142 | 11271 ft | 116 kts | 183° |
| 2026-05-09 13:55 | 55.08511 | -1.70952 | 11268 ft | 115 kts | 182° |
| 2026-05-09 13:55 | 55.07724 | -1.70764 | 11263 ft | 113 kts | 183° |
| 2026-05-09 13:55 | 55.06947 | -1.70580 | 11261 ft | 112 kts | 183° |
| 2026-05-09 13:56 | 55.06180 | -1.70399 | 11257 ft | 111 kts | 183° |
| 2026-05-09 13:56 | 55.05419 | -1.70219 | 11255 ft | 110 kts | 183° |
| 2026-05-09 13:56 | 55.04660 | -1.70038 | 11255 ft | 110 kts | 181° |
| 2026-05-09 13:56 | 55.03898 | -1.69859 | 11253 ft | 111 kts | 181° |
| 2026-05-09 13:57 | 55.03141 | -1.69530 | 11259 ft | 112 kts | 176° |
| 2026-05-09 13:57 | 55.02629 | -1.69325 | 11259 ft | 112 kts | 176° |
| 2026-05-09 13:57 | 55.01873 | -1.69014 | 11259 ft | 112 kts | 176° |
| 2026-05-09 13:57 | 55.01119 | -1.68700 | 11261 ft | 112 kts | 176° |
| 2026-05-09 13:58 | 55.00375 | -1.68388 | 11256 ft | 111 kts | 176° |
| 2026-05-09 13:58 | 54.99613 | -1.68069 | 11249 ft | 111 kts | 177° |
| 2026-05-09 13:58 | 54.98868 | -1.67755 | 11258 ft | 110 kts | 177° |
| 2026-05-09 13:58 | 54.98131 | -1.67446 | 11257 ft | 111 kts | 176° |
| 2026-05-09 13:59 | 54.97378 | -1.67131 | 11258 ft | 112 kts | 175° |
| 2026-05-09 13:59 | 54.96619 | -1.66814 | 11261 ft | 113 kts | 175° |
| 2026-05-09 13:59 | 54.95853 | -1.66493 | 11262 ft | 114 kts | 175° |
| 2026-05-09 13:59 | 54.95085 | -1.66172 | 11262 ft | 113 kts | 176° |
| 2026-05-09 14:00 | 54.94323 | -1.65851 | 11257 ft | 112 kts | 177° |
| 2026-05-09 14:00 | 54.93812 | -1.65635 | 11255 ft | 112 kts | 176° |
| 2026-05-09 14:00 | 54.92815 | -1.65218 | 11254 ft | 111 kts | 177° |
| 2026-05-09 14:00 | 54.92067 | -1.64904 | 11255 ft | 111 kts | 175° |
| 2026-05-09 14:01 | 54.91319 | -1.64591 | 11257 ft | 111 kts | 176° |
| 2026-05-09 14:01 | 54.90571 | -1.64280 | 11257 ft | 110 kts | 176° |
| 2026-05-09 14:01 | 54.89825 | -1.63968 | 11256 ft | 110 kts | 176° |
| 2026-05-09 14:01 | 54.89079 | -1.63657 | 11257 ft | 110 kts | 177° |
| 2026-05-09 14:02 | 54.88334 | -1.63345 | 11258 ft | 110 kts | 177° |
| 2026-05-09 14:02 | 54.87590 | -1.63033 | 11257 ft | 110 kts | 176° |
| 2026-05-09 14:02 | 54.86847 | -1.62726 | 11260 ft | 108 kts | 180° |
| 2026-05-09 14:02 | 54.86119 | -1.62421 | 11262 ft | 107 kts | 181° |
| 2026-05-09 14:03 | 54.85393 | -1.62119 | 11261 ft | 107 kts | 181° |
| 2026-05-09 14:03 | 54.84676 | -1.61819 | 11261 ft | 106 kts | 182° |
| 2026-05-09 14:03 | 54.83961 | -1.61521 | 11254 ft | 106 kts | 182° |
| 2026-05-09 14:03 | 54.83244 | -1.61223 | 11255 ft | 106 kts | 182° |
| 2026-05-09 14:04 | 54.82520 | -1.60923 | 11255 ft | 107 kts | 181° |
| 2026-05-09 14:04 | 54.81794 | -1.60619 | 11251 ft | 107 kts | 181° |
| 2026-05-09 14:04 | 54.81070 | -1.60313 | 11243 ft | 108 kts | 176° |
| 2026-05-09 14:04 | 54.80340 | -1.60010 | 11245 ft | 108 kts | 177° |
| 2026-05-09 14:05 | 54.79611 | -1.59710 | 11249 ft | 108 kts | 179° |
| 2026-05-09 14:05 | 54.78877 | -1.59402 | 11245 ft | 109 kts | 175° |
| 2026-05-09 14:05 | 54.78136 | -1.59098 | 11248 ft | 110 kts | 177° |
| 2026-05-09 14:05 | 54.77400 | -1.58791 | 11246 ft | 109 kts | 176° |
| 2026-05-09 14:06 | 54.76665 | -1.58488 | 11248 ft | 108 kts | 181° |
| 2026-05-09 14:06 | 54.75939 | -1.58186 | 11249 ft | 107 kts | 181° |
| 2026-05-09 14:06 | 54.75214 | -1.57882 | 11244 ft | 107 kts | 180° |
| 2026-05-09 14:06 | 54.74495 | -1.57587 | 11249 ft | 108 kts | 181° |
| 2026-05-09 14:07 | 54.73766 | -1.57284 | 11241 ft | 108 kts | 177° |
| 2026-05-09 14:07 | 54.73028 | -1.56976 | 11235 ft | 110 kts | 175° |
| 2026-05-09 14:07 | 54.72279 | -1.56667 | 11237 ft | 111 kts | 175° |
| 2026-05-09 14:07 | 54.71528 | -1.56356 | 11237 ft | 111 kts | 175° |
| 2026-05-09 14:08 | 54.70775 | -1.56044 | 11235 ft | 111 kts | 175° |
| 2026-05-09 14:08 | 54.70025 | -1.55733 | 11235 ft | 111 kts | 175° |
| 2026-05-09 14:08 | 54.69277 | -1.55424 | 11235 ft | 111 kts | 175° |
| 2026-05-09 14:08 | 54.68530 | -1.55116 | 11234 ft | 110 kts | 177° |
| 2026-05-09 14:09 | 54.67788 | -1.54808 | 11233 ft | 109 kts | 176° |
| 2026-05-09 14:09 | 54.67050 | -1.54504 | 11232 ft | 108 kts | 178° |
| 2026-05-09 14:09 | 54.66315 | -1.54198 | 11231 ft | 109 kts | 175° |
| 2026-05-09 14:09 | 54.65573 | -1.53892 | 11233 ft | 110 kts | 175° |
| 2026-05-09 14:10 | 54.64104 | -1.53288 | 11234 ft | 107 kts | 179° |
| 2026-05-09 14:10 | 54.63380 | -1.52988 | 11229 ft | 107 kts | 179° |
| 2026-05-09 14:10 | 54.62660 | -1.52692 | 11229 ft | 106 kts | 178° |
| 2026-05-09 14:11 | 54.61940 | -1.52393 | 11227 ft | 107 kts | 175° |
| 2026-05-09 14:11 | 54.61217 | -1.52098 | 11229 ft | 107 kts | 177° |
| 2026-05-09 14:11 | 54.60492 | -1.51799 | 11229 ft | 108 kts | 175° |
| 2026-05-09 14:11 | 54.59761 | -1.51501 | 11231 ft | 107 kts | 179° |
| 2026-05-09 14:12 | 54.59037 | -1.51201 | 11236 ft | 106 kts | 179° |
| 2026-05-09 14:12 | 54.58318 | -1.50903 | 11233 ft | 106 kts | 179° |
| 2026-05-09 14:12 | 54.57597 | -1.50606 | 11234 ft | 107 kts | 178° |
| 2026-05-09 14:12 | 54.56867 | -1.50306 | 11231 ft | 108 kts | 176° |
| 2026-05-09 14:13 | 54.56133 | -1.50004 | 11233 ft | 109 kts | 176° |
| 2026-05-09 14:14 | 54.51090 | -1.47933 | 11230 ft | 107 kts | 175° |
| 2026-05-09 14:15 | 54.50365 | -1.47640 | 11233 ft | 107 kts | 176° |
| 2026-05-09 14:15 | 54.49635 | -1.47340 | 11232 ft | 108 kts | 175° |
| 2026-05-09 14:15 | 54.48900 | -1.47042 | 11229 ft | 108 kts | 178° |
| 2026-05-09 14:15 | 54.48168 | -1.46739 | 11229 ft | 108 kts | 176° |
| 2026-05-09 14:16 | 54.47437 | -1.46440 | 11229 ft | 108 kts | 177° |
| 2026-05-09 14:16 | 54.46708 | -1.46142 | 11230 ft | 108 kts | 176° |
| 2026-05-09 14:16 | 54.45976 | -1.45841 | 11228 ft | 109 kts | 175° |
| 2026-05-09 14:16 | 54.45235 | -1.45539 | 11231 ft | 110 kts | 176° |
| 2026-05-09 14:17 | 54.44493 | -1.45236 | 11233 ft | 110 kts | 175° |
| 2026-05-09 14:17 | 54.43748 | -1.44931 | 11232 ft | 110 kts | 175° |
| 2026-05-09 14:17 | 54.42999 | -1.44627 | 11231 ft | 111 kts | 174° |
| 2026-05-09 14:17 | 54.42248 | -1.44321 | 11233 ft | 111 kts | 174° |
| 2026-05-09 14:18 | 54.41495 | -1.44013 | 11230 ft | 111 kts | 174° |
| 2026-05-09 14:18 | 54.40739 | -1.43704 | 11228 ft | 111 kts | 174° |
| 2026-05-09 14:18 | 54.39985 | -1.43397 | 11230 ft | 112 kts | 174° |
| 2026-05-09 14:18 | 54.39209 | -1.43085 | 11128 ft | 120 kts | 174° |
| 2026-05-09 14:19 | 54.38372 | -1.42749 | 10936 ft | 126 kts | 173° |
| 2026-05-09 14:19 | 54.37505 | -1.42395 | 10770 ft | 129 kts | 173° |
| 2026-05-09 14:19 | 54.36624 | -1.42039 | 10597 ft | 131 kts | 175° |
| 2026-05-09 14:19 | 54.35741 | -1.41677 | 10429 ft | 130 kts | 175° |
| 2026-05-09 14:20 | 54.34859 | -1.41318 | 10260 ft | 130 kts | 175° |
| 2026-05-09 14:20 | 54.33981 | -1.40957 | 10085 ft | 130 kts | 173° |
| 2026-05-09 14:20 | 54.33097 | -1.40599 | 9899 ft | 131 kts | 173° |
| 2026-05-09 14:21 | 54.31316 | -1.39880 | 9522 ft | 131 kts | 176° |
| 2026-05-09 14:21 | 54.30425 | -1.39518 | 9341 ft | 132 kts | 176° |
| 2026-05-09 14:21 | 54.29526 | -1.39153 | 9154 ft | 134 kts | 174° |
| 2026-05-09 14:21 | 54.28610 | -1.38778 | 8972 ft | 136 kts | 172° |
| 2026-05-09 14:22 | 54.27697 | -1.38410 | 8792 ft | 137 kts | 173° |
| 2026-05-09 14:22 | 54.26778 | -1.38039 | 8605 ft | 135 kts | 173° |
| 2026-05-09 14:22 | 54.25873 | -1.37671 | 8421 ft | 133 kts | 173° |
| 2026-05-09 14:22 | 54.24970 | -1.37303 | 8240 ft | 134 kts | 171° |
| 2026-05-09 14:23 | 54.24062 | -1.36935 | 8058 ft | 134 kts | 171° |
| 2026-05-09 14:23 | 54.23154 | -1.36570 | 7877 ft | 134 kts | 171° |
| 2026-05-09 14:23 | 54.22251 | -1.36206 | 7700 ft | 133 kts | 171° |
| 2026-05-09 14:23 | 54.21351 | -1.35843 | 7523 ft | 133 kts | 171° |
| 2026-05-09 14:24 | 54.20450 | -1.35480 | 7347 ft | 133 kts | 172° |
| 2026-05-09 14:24 | 54.19549 | -1.35114 | 7175 ft | 133 kts | 170° |
| 2026-05-09 14:24 | 54.18645 | -1.34750 | 7002 ft | 134 kts | 171° |
| 2026-05-09 14:24 | 54.17739 | -1.34384 | 6830 ft | 134 kts | 170° |
| 2026-05-09 14:25 | 54.16831 | -1.34022 | 6655 ft | 134 kts | 172° |
| 2026-05-09 14:25 | 54.15925 | -1.33656 | 6475 ft | 134 kts | 172° |
| 2026-05-09 14:25 | 54.15018 | -1.33289 | 6290 ft | 134 kts | 171° |
| 2026-05-09 14:25 | 54.14109 | -1.32924 | 6110 ft | 134 kts | 171° |
| 2026-05-09 14:26 | 54.13200 | -1.32559 | 5909 ft | 134 kts | 171° |
| 2026-05-09 14:26 | 54.12290 | -1.32193 | 5730 ft | 134 kts | 171° |
| 2026-05-09 14:26 | 54.11380 | -1.31828 | 5550 ft | 134 kts | 170° |
| 2026-05-09 14:26 | 54.10468 | -1.31461 | 5369 ft | 135 kts | 170° |
| 2026-05-09 14:27 | 54.09557 | -1.31095 | 5188 ft | 134 kts | 169° |
| 2026-05-09 14:27 | 54.08647 | -1.30729 | 5010 ft | 134 kts | 169° |
| 2026-05-09 14:27 | 54.07737 | -1.30363 | 4824 ft | 134 kts | 169° |
| 2026-05-09 14:27 | 54.06828 | -1.29998 | 4643 ft | 135 kts | 168° |
| 2026-05-09 14:28 | 54.05914 | -1.29631 | 4459 ft | 135 kts | 168° |
| 2026-05-09 14:28 | 54.05010 | -1.29269 | 4282 ft | 136 kts | 167° |
| 2026-05-09 14:28 | 54.04087 | -1.28902 | 4100 ft | 137 kts | 167° |
| 2026-05-09 14:28 | 54.03157 | -1.28529 | 3923 ft | 138 kts | 167° |
| 2026-05-09 14:29 | 54.02197 | -1.28146 | 3751 ft | 141 kts | 166° |
| 2026-05-09 14:29 | 54.01223 | -1.27760 | 3589 ft | 147 kts | 166° |
| 2026-05-09 14:29 | 54.00202 | -1.27354 | 3421 ft | 154 kts | 165° |
| 2026-05-09 14:29 | 53.99157 | -1.26940 | 3240 ft | 158 kts | 165° |
| 2026-05-09 14:30 | 53.98104 | -1.26526 | 3046 ft | 148 kts | 165° |
| 2026-05-09 14:30 | 53.97139 | -1.26145 | 2851 ft | 136 kts | 164° |
| 2026-05-09 14:30 | 53.96242 | -1.25781 | 2657 ft | 129 kts | 163° |
| 2026-05-09 14:30 | 53.95381 | -1.25437 | 2478 ft | 125 kts | 164° |
| 2026-05-09 14:31 | 53.94537 | -1.25095 | 2263 ft | 127 kts | 161° |
| 2026-05-09 14:31 | 53.93667 | -1.24748 | 1976 ft | 132 kts | 161° |
| 2026-05-09 14:31 | 53.92754 | -1.24383 | 1671 ft | 137 kts | 166° |
| 2026-05-09 14:31 | 53.91818 | -1.24025 | 1359 ft | 138 kts | 164° |
| 2026-05-09 14:32 | 53.90899 | -1.23655 | 1045 ft | 134 kts | 166° |
| 2026-05-09 14:32 | 53.90036 | -1.23315 | 814 ft | 118 kts | 166° |
| 2026-05-09 14:32 | 53.89305 | -1.23018 | 803 ft | 106 kts | 166° |
| 2026-05-09 14:32 | 53.88586 | -1.22724 | 718 ft | 106 kts | 161° |
| 2026-05-09 14:33 | 53.87890 | -1.22443 | 625 ft | 99 kts | 160° |
| 2026-05-09 14:33 | 53.87232 | -1.22143 | 590 ft | 94 kts | 160° |
| 2026-05-09 14:33 | 53.86594 | -1.21976 | 534 ft | 95 kts | 186° |
| 2026-05-09 14:33 | 53.86003 | -1.22507 | 448 ft | 97 kts | 233° |
| 2026-05-09 14:34 | 53.85601 | -1.23366 | 490 ft | 90 kts | 244° |
| 2026-05-09 14:34 | 53.85278 | -1.24247 | 551 ft | 88 kts | 243° |
| 2026-05-09 14:34 | 53.84977 | -1.25115 | 587 ft | 83 kts | 246° |
| 2026-05-09 14:34 | 53.84516 | -1.25628 | 573 ft | 86 kts | 186° |
| 2026-05-09 14:35 | 53.83914 | -1.25462 | 513 ft | 87 kts | 151° |
| 2026-05-09 14:35 | 53.83344 | -1.25042 | 478 ft | 89 kts | 152° |
| 2026-05-09 14:35 | 53.82770 | -1.24639 | 479 ft | 91 kts | 150° |
| 2026-05-09 14:35 | 53.82171 | -1.24203 | 452 ft | 93 kts | 143° |
| 2026-05-09 14:36 | 53.81874 | -1.23401 | 444 ft | 77 kts | 81° |
| 2026-05-09 14:36 | 53.82002 | -1.22570 | 429 ft | 72 kts | 61° |
| 2026-05-09 14:36 | 53.82263 | -1.21878 | 333 ft | 64 kts | 43° |
| 2026-05-09 14:36 | 53.82527 | -1.21361 | 241 ft | 53 kts | 32° |
| 2026-05-09 14:37 | 53.82817 | -1.20986 | 142 ft | 55 kts | 34° |
| 2026-05-09 14:37 | 53.83064 | -1.20456 | 57 ft | 59 kts | 45° |
| 2026-05-09 14:37 | 53.83284 | -1.19943 | 39 ft | 43 kts | 54° |
| 2026-05-09 14:37 | 53.83401 | -1.19665 | 37 ft | 21 kts | 56° |
| 2026-05-09 14:38 | 53.83454 | -1.19551 | 36 ft | 4 kts | 356° |
| 2026-05-09 14:38 | 53.83464 | -1.19557 | 36 ft | 2 kts | 337° |
| 2026-05-09 14:38 | 53.83520 | -1.19591 | 36 ft | 15 kts | 339° |
| 2026-05-09 14:38 | 53.83636 | -1.19684 | 35 ft | 19 kts | 331° |
| 2026-05-09 14:39 | 53.83668 | -1.19795 | 35 ft | 10 kts | 219° |
| 2026-05-09 14:39 | 53.83611 | -1.19830 | 36 ft | 10 kts | 194° |
| 2026-05-09 14:39 | 53.83540 | -1.19877 | 37 ft | 6 kts | 183° |
| 2026-05-09 14:39 | 53.83507 | -1.19832 | 37 ft | 5 kts | 191° |
| 2026-05-09 14:40 | 53.83496 | -1.19843 | 37 ft | 0 kts | 223° |